Time;durP1;ratioP1;P1;durP2;ratioP2;P2;SDS_P1;SDS_P2;PMS_P1;PMS_P2;Temp;Humidity;BMP_temperature;BMP_pressure;BME280_temperature;BME280_humidity;BME280_pressure;Samples;Min_cycle;Max_cycle;Signal;HPM_P1;HPM_P2
2022/02/16 00:01:18;;;;;;;;;;;;;;;16.21;47.65;98422.94;4409237;32;20429;-69
2022/02/16 00:03:43;;;;;;;;;;;;;;;16.21;47.62;98399.47;4408630;32;19997;-70
2022/02/16 00:06:09;;;;;;;;;;;;;;;16.02;48.17;98399.41;4406833;32;19962;-69
2022/02/16 00:08:35;;;;;;;;;;;;;;;16.15;47.80;98396.69;4407921;32;19998;-69
2022/02/16 00:11:01;;;;;;;;;;;;;;;16.21;48.24;98394.56;4408722;32;20004;-69
2022/02/16 00:13:26;;;;;;;;;;;;;;;15.88;49.30;98392.06;4407439;32;19962;-69
2022/02/16 00:15:52;;;;;;;;;;;;;;;15.83;49.84;98381.53;4406495;32;19970;-69
2022/02/16 00:18:19;;;;;;;;;;;;;;;15.95;49.22;98365.94;4407533;32;19985;-69
2022/02/16 00:20:45;;;;;;;;;;;;;;;15.71;50.10;98351.78;4404165;32;20000;-68
2022/02/16 00:23:10;;;;;;;;;;;;;;;15.85;50.05;98342.88;4404679;32;20013;-68
2022/02/16 00:25:36;;;;;;;;;;;;;;;16.02;49.67;98319.22;4408525;32;20228;-68
2022/02/16 00:28:02;;;;;;;;;;;;;;;15.63;50.47;98306.25;4405067;32;19993;-68
2022/02/16 00:30:28;;;;;;;;;;;;;;;15.75;50.55;98298.38;4407528;32;20259;-67
2022/02/16 00:32:53;;;;;;;;;;;;;;;15.90;50.10;98285.31;4406392;32;19953;-68
2022/02/16 00:35:19;;;;;;;;;;;;;;;15.63;51.05;98280.75;4407464;32;20702;-68
2022/02/16 00:37:45;;;;;;;;;;;;;;;15.68;51.11;98285.56;4408036;32;20020;-68
2022/02/16 00:40:11;;;;;;;;;;;;;;;15.74;51.07;98269.25;4406878;32;20334;-68
2022/02/16 00:42:36;;;;;;;;;;;;;;;15.88;51.05;98272.97;4408664;32;19968;-68
2022/02/16 00:45:03;;;;;;;;;;;;;;;16.12;50.53;98274.97;4405291;32;19962;-69
2022/02/16 00:47:28;;;;;;;;;;;;;;;15.92;51.27;98267.75;4408999;32;19981;-69
2022/02/16 00:49:54;;;;;;;;;;;;;;;15.75;51.57;98250.19;4408123;32;19946;-69
2022/02/16 00:52:21;;;;;;;;;;;;;;;15.92;51.45;98254.34;4406732;32;19993;-69
2022/02/16 00:54:48;;;;;;;;;;;;;;;15.75;51.92;98248.13;4405561;32;19957;-69
2022/02/16 00:57:13;;;;;;;;;;;;;;;15.62;52.51;98248.00;4406624;32;20248;-69
2022/02/16 00:59:39;;;;;;;;;;;;;;;15.26;53.76;98231.63;4408344;32;19962;-68
2022/02/16 01:02:05;;;;;;;;;;;;;;;15.12;54.19;98219.41;4409145;32;20003;-68
2022/02/16 01:04:30;;;;;;;;;;;;;;;15.28;53.95;98203.53;4407538;32;19949;-69
2022/02/16 01:06:56;;;;;;;;;;;;;;;15.01;55.08;98196.09;4406820;32;19998;-69
2022/02/16 01:09:22;;;;;;;;;;;;;;;14.69;55.62;98190.19;4406517;32;20031;-69
2022/02/16 01:11:48;;;;;;;;;;;;;;;15.14;54.76;98182.06;4405883;32;20379;-69
2022/02/16 01:14:13;;;;;;;;;;;;;;;14.92;55.31;98174.56;4407839;32;20342;-69
2022/02/16 01:16:40;;;;;;;;;;;;;;;14.88;55.86;98164.81;4407430;32;20377;-69
2022/02/16 01:19:06;;;;;;;;;;;;;;;14.81;55.97;98148.41;4409519;32;19974;-69
2022/02/16 01:21:31;;;;;;;;;;;;;;;14.80;56.16;98139.16;4406909;32;19993;-69
2022/02/16 01:23:57;;;;;;;;;;;;;;;15.11;55.38;98134.97;4401813;32;20418;-69
2022/02/16 01:26:23;;;;;;;;;;;;;;;15.32;54.92;98136.00;4406483;32;19988;-69
2022/02/16 01:28:49;;;;;;;;;;;;;;;15.05;55.51;98134.25;4408062;32;19981;-69
2022/02/16 01:31:14;;;;;;;;;;;;;;;15.33;55.16;98129.03;4408712;32;19950;-69
2022/02/16 01:33:40;;;;;;;;;;;;;;;15.20;55.33;98109.88;4407140;32;19992;-69
2022/02/16 01:36:05;;;;;;;;;;;;;;;15.29;55.41;98106.69;4405588;32;20013;-69
2022/02/16 01:38:31;;;;;;;;;;;;;;;15.13;55.99;98095.56;4406606;32;19954;-69
2022/02/16 01:40:56;;;;;;;;;;;;;;;15.08;56.14;98079.38;4408363;32;19984;-69
2022/02/16 01:43:22;;;;;;;;;;;;;;;15.16;56.02;98086.00;4406883;32;20034;-69
2022/02/16 01:45:48;;;;;;;;;;;;;;;15.10;56.51;98080.37;4407617;32;19965;-70
2022/02/16 01:48:13;;;;;;;;;;;;;;;15.50;55.68;98079.38;4408161;32;20366;-70
2022/02/16 01:50:39;;;;;;;;;;;;;;;15.41;55.88;98088.25;4408121;32;20386;-70
2022/02/16 01:53:04;;;;;;;;;;;;;;;15.54;55.62;98074.19;4405007;32;21580;-70
2022/02/16 01:55:30;;;;;;;;;;;;;;;15.82;55.03;98073.78;4406084;32;19962;-70
2022/02/16 01:57:57;;;;;;;;;;;;;;;15.83;55.01;98078.13;4409357;32;19984;-70
2022/02/16 02:00:22;;;;;;;;;;;;;;;15.72;55.51;98064.91;4406692;32;20387;-70
2022/02/16 02:02:48;;;;;;;;;;;;;;;15.67;55.66;98054.41;4407259;32;19965;-70
2022/02/16 02:05:13;;;;;;;;;;;;;;;15.58;56.07;98046.28;4407176;32;20033;-70
2022/02/16 02:07:40;;;;;;;;;;;;;;;15.70;55.98;98052.56;4407646;32;19989;-70
2022/02/16 02:10:06;;;;;;;;;;;;;;;15.54;56.28;98028.06;4407043;32;20012;-70
2022/02/16 02:12:32;;;;;;;;;;;;;;;15.73;55.99;98032.41;4405826;32;19961;-70
2022/02/16 02:14:58;;;;;;;;;;;;;;;15.60;56.75;98023.84;4407541;32;20012;-70
2022/02/16 02:17:23;;;;;;;;;;;;;;;15.54;57.54;98011.06;4407409;32;20390;-70
2022/02/16 02:19:49;;;;;;;;;;;;;;;15.64;57.54;98012.97;4407459;32;20342;-69
2022/02/16 02:22:15;;;;;;;;;;;;;;;15.91;57.19;98011.75;4405834;32;19950;-69
2022/02/16 02:24:40;;;;;;;;;;;;;;;15.85;57.58;98018.81;4407303;32;20041;-69
2022/02/16 02:27:05;;;;;;;;;;;;;;;16.30;56.58;98016.78;4404013;32;19964;-69
2022/02/16 02:29:32;;;;;;;;;;;;;;;16.48;56.05;98013.13;4406838;32;19985;-69
2022/02/16 02:31:58;;;;;;;;;;;;;;;16.53;56.21;98011.47;4407665;32;19958;-69
2022/02/16 02:34:24;;;;;;;;;;;;;;;16.66;55.94;98011.50;4406817;32;20044;-69
2022/02/16 02:36:50;;;;;;;;;;;;;;;16.72;56.11;98012.16;4405858;32;20384;-70
2022/02/16 02:39:15;;;;;;;;;;;;;;;16.86;55.72;98025.03;4410159;32;19997;-70
2022/02/16 02:41:41;;;;;;;;;;;;;;;16.79;55.94;98006.59;4407534;32;19961;-70
2022/02/16 02:44:07;;;;;;;;;;;;;;;16.96;55.85;98023.25;4409365;32;19949;-70
2022/02/16 02:46:33;;;;;;;;;;;;;;;17.13;55.35;98018.78;4408849;32;20272;-70
2022/02/16 02:48:58;;;;;;;;;;;;;;;17.17;54.91;98013.53;4404467;32;19980;-71
2022/02/16 02:51:24;;;;;;;;;;;;;;;17.42;54.73;98006.25;4407883;32;19993;-70
2022/02/16 02:53:50;;;;;;;;;;;;;;;17.37;55.27;98004.28;4405619;32;19950;-71
2022/02/16 02:56:15;;;;;;;;;;;;;;;17.36;55.50;97993.47;4410307;32;20007;-71
2022/02/16 02:58:41;;;;;;;;;;;;;;;17.38;55.21;98002.22;4407637;32;20023;-71
2022/02/16 03:01:07;;;;;;;;;;;;;;;17.59;55.09;98003.06;4409698;32;20012;-71
2022/02/16 03:03:34;;;;;;;;;;;;;;;17.61;55.12;98003.25;4409501;32;19993;-71
2022/02/16 03:05:59;;;;;;;;;;;;;;;17.84;54.73;97998.59;4410946;32;19997;-71
2022/02/16 03:08:25;;;;;;;;;;;;;;;18.08;53.77;98003.19;4411368;32;20046;-71
2022/02/16 03:10:50;;;;;;;;;;;;;;;18.04;54.36;98002.75;4410737;32;20370;-71
2022/02/16 03:13:19;;;;;;;;;;;;;;;17.73;55.70;97985.41;4408988;32;19997;-71
2022/02/16 03:15:45;;;;;;;;;;;;;;;17.47;56.64;97985.50;4407956;32;19996;-71
2022/02/16 03:18:11;;;;;;;;;;;;;;;17.25;56.82;97988.78;4409914;32;20394;-70
2022/02/16 03:20:37;;;;;;;;;;;;;;;17.56;56.24;97975.75;4407399;32;20020;-70
2022/02/16 03:23:02;;;;;;;;;;;;;;;17.78;55.91;97950.37;4410255;32;19969;-70
2022/02/16 03:25:28;;;;;;;;;;;;;;;17.98;55.28;97951.66;4409877;32;20003;-70
2022/02/16 03:27:55;;;;;;;;;;;;;;;18.06;55.37;97946.03;4411902;32;20912;-71
2022/02/16 03:30:20;;;;;;;;;;;;;;;18.00;55.25;97949.03;4423372;32;19972;-70
2022/02/16 03:32:45;;;;;;;;;;;;;;;17.99;55.17;97952.44;4422602;32;19999;-70
2022/02/16 03:35:11;;;;;;;;;;;;;;;17.79;55.83;97954.75;4424358;32;19992;-70
2022/02/16 03:37:37;;;;;;;;;;;;;;;17.95;55.48;97926.44;4422785;32;20031;-70
2022/02/16 03:40:03;;;;;;;;;;;;;;;18.09;54.96;97910.78;4424953;32;19953;-70
2022/02/16 03:42:29;;;;;;;;;;;;;;;17.94;55.67;97913.53;4423074;32;20018;-70
2022/02/16 03:44:54;;;;;;;;;;;;;;;17.87;56.00;97915.75;4423424;32;19973;-70
2022/02/16 03:47:20;;;;;;;;;;;;;;;18.07;55.74;97914.19;4422199;32;20366;-70
2022/02/16 03:49:47;;;;;;;;;;;;;;;18.02;55.93;97917.97;4420714;32;20385;-70
2022/02/16 03:52:12;;;;;;;;;;;;;;;17.97;56.31;97920.97;4421160;32;19965;-69
2022/02/16 03:54:38;;;;;;;;;;;;;;;18.43;55.06;97937.06;4422639;32;19972;-69
2022/02/16 03:57:04;;;;;;;;;;;;;;;18.62;54.21;97924.09;4421636;32;20018;-69
2022/02/16 03:59:30;;;;;;;;;;;;;;;18.57;54.56;97927.87;4423806;32;19996;-69
2022/02/16 04:01:55;;;;;;;;;;;;;;;18.90;53.92;97940.38;4422443;32;20335;-69
2022/02/16 04:04:21;;;;;;;;;;;;;;;18.72;54.10;97925.06;4420902;32;19980;-70
2022/02/16 04:06:47;;;;;;;;;;;;;;;18.55;54.72;97935.44;4424809;32;19946;-70
2022/02/16 04:09:13;;;;;;;;;;;;;;;18.71;54.25;97925.63;4423873;32;19979;-70
2022/02/16 04:11:39;;;;;;;;;;;;;;;18.65;53.99;97931.50;4426242;32;19999;-69
2022/02/16 04:14:04;;;;;;;;;;;;;;;19.02;53.42;97924.47;4421911;32;20339;-69
2022/02/16 04:16:30;;;;;;;;;;;;;;;19.05;53.12;97901.31;4421995;32;19960;-69
2022/02/16 04:18:56;;;;;;;;;;;;;;;18.83;54.11;97904.06;4423771;32;21481;-69
2022/02/16 04:21:22;;;;;;;;;;;;;;;18.74;54.46;97918.81;4425023;32;19973;-69
2022/02/16 04:23:48;;;;;;;;;;;;;;;18.47;55.41;97906.91;4421376;32;19965;-69
2022/02/16 04:26:13;;;;;;;;;;;;;;;18.61;55.48;97914.03;4423569;32;20004;-69
2022/02/16 04:28:39;;;;;;;;;;;;;;;18.27;56.35;97910.56;4423133;32;20504;-69
2022/02/16 04:31:05;;;;;;;;;;;;;;;18.61;55.32;97947.44;4422580;32;20002;-69
2022/02/16 04:33:31;;;;;;;;;;;;;;;18.50;55.08;97908.62;4422501;32;20372;-69
2022/02/16 04:35:56;;;;;;;;;;;;;;;18.36;55.38;97898.66;4420175;32;19953;-69
2022/02/16 04:38:21;;;;;;;;;;;;;;;18.51;54.96;97920.78;4423592;32;19957;-70
2022/02/16 04:40:47;;;;;;;;;;;;;;;18.93;54.12;97902.22;4420876;32;20064;-70
2022/02/16 04:43:12;;;;;;;;;;;;;;;18.38;55.50;97940.84;4421990;32;19976;-69
2022/02/16 04:45:38;;;;;;;;;;;;;;;18.29;55.36;97947.78;4420774;32;20007;-69
2022/02/16 04:48:05;;;;;;;;;;;;;;;18.45;55.02;97906.72;4411775;32;19966;-69
2022/02/16 04:50:30;;;;;;;;;;;;;;;18.65;54.68;97931.50;4422543;32;19995;-69
2022/02/16 04:52:56;;;;;;;;;;;;;;;18.50;55.14;97954.19;4422877;32;19961;-68
2022/02/16 04:55:22;;;;;;;;;;;;;;;18.90;54.47;97921.19;4423383;32;19964;-69
2022/02/16 04:57:48;;;;;;;;;;;;;;;18.31;55.79;97890.28;4424633;32;20028;-69
2022/02/16 05:00:14;;;;;;;;;;;;;;;18.17;55.58;97937.22;4422663;32;19957;-69
2022/02/16 05:02:39;;;;;;;;;;;;;;;18.41;54.84;97928.31;4420654;32;19992;-69
2022/02/16 05:05:06;;;;;;;;;;;;;;;18.74;53.87;97924.53;4421330;32;19958;-70
2022/02/16 05:07:32;;;;;;;;;;;;;;;18.46;54.39;97925.31;4420620;32;19950;-70
2022/02/16 05:09:57;;;;;;;;;;;;;;;18.67;53.91;97913.84;4422868;32;20343;-70
2022/02/16 05:12:22;;;;;;;;;;;;;;;18.65;53.94;97916.53;4421412;32;20001;-70
2022/02/16 05:14:48;;;;;;;;;;;;;;;18.93;53.71;97907.91;4422783;32;19971;-70
2022/02/16 05:17:13;;;;;;;;;;;;;;;18.65;54.24;97919.38;4423108;32;19987;-70
2022/02/16 05:19:39;;;;;;;;;;;;;;;18.38;53.98;97930.19;4422025;32;20079;-69
2022/02/16 05:22:04;;;;;;;;;;;;;;;18.23;53.80;97946.38;4407625;32;19954;-69
2022/02/16 05:24:30;;;;;;;;;;;;;;;18.26;53.59;97922.50;4422178;32;19961;-69
2022/02/16 05:26:55;;;;;;;;;;;;;;;18.26;53.47;97909.03;4424881;32;20406;-70
2022/02/16 05:29:21;;;;;;;;;;;;;;;18.49;52.53;97921.34;4419981;32;19997;-70
2022/02/16 05:31:47;;;;;;;;;;;;;;;18.37;52.38;97897.34;4424582;32;20441;-69
2022/02/16 05:34:13;;;;;;;;;;;;;;;18.43;51.70;97925.66;4409552;32;20008;-70
2022/02/16 05:36:38;;;;;;;;;;;;;;;18.75;50.54;97894.72;4423860;32;19963;-70
2022/02/16 05:39:04;;;;;;;;;;;;;;;18.55;50.59;97898.41;4414189;32;20035;-70
2022/02/16 05:41:30;;;;;;;;;;;;;;;18.83;50.13;97898.34;4425831;32;20181;-70
2022/02/16 05:43:56;;;;;;;;;;;;;;;18.80;50.43;97888.84;4422665;32;20020;-71
2022/02/16 05:46:21;;;;;;;;;;;;;;;18.88;50.44;97886.81;4422273;32;19973;-70
2022/02/16 05:48:47;;;;;;;;;;;;;;;18.46;50.88;97901.78;4421820;32;20061;-70
2022/02/16 05:51:12;;;;;;;;;;;;;;;18.61;50.50;97893.31;4425353;32;20363;-70
2022/02/16 05:53:38;;;;;;;;;;;;;;;18.80;50.15;97903.09;4421561;32;20347;-70
2022/02/16 05:56:03;;;;;;;;;;;;;;;18.34;50.78;97935.47;4422195;32;20049;-70
2022/02/16 05:58:31;;;;;;;;;;;;;;;18.68;50.23;97907.59;4420001;32;20315;-70
2022/02/16 06:00:56;;;;;;;;;;;;;;;18.60;51.04;97911.72;4420266;32;19979;-70
2022/02/16 06:03:22;;;;;;;;;;;;;;;18.25;52.43;97895.38;4419469;32;20001;-70
2022/02/16 06:05:48;;;;;;;;;;;;;;;18.76;51.50;97913.34;4423509;32;19977;-70
2022/02/16 06:08:13;;;;;;;;;;;;;;;18.58;52.05;97925.75;4422554;32;19977;-70
2022/02/16 06:10:39;;;;;;;;;;;;;;;18.89;51.37;97910.34;4423426;32;20014;-70
2022/02/16 06:13:04;;;;;;;;;;;;;;;18.70;51.88;97921.28;4423497;32;19993;-70
2022/02/16 06:15:30;;;;;;;;;;;;;;;18.92;51.04;97918.53;4425790;32;19984;-70
2022/02/16 06:17:55;;;;;;;;;;;;;;;19.04;50.68;97956.78;4423796;32;20026;-70
2022/02/16 06:20:22;;;;;;;;;;;;;;;18.73;50.43;97969.34;4424125;32;20577;-70
2022/02/16 06:22:48;;;;;;;;;;;;;;;18.99;48.68;97960.56;4425242;32;19953;-70
2022/02/16 06:25:13;;;;;;;;;;;;;;;18.76;48.29;97953.22;4423720;32;19991;-70
2022/02/16 06:27:39;;;;;;;;;;;;;;;18.86;47.65;97963.53;4426046;32;19984;-69
2022/02/16 06:30:05;;;;;;;;;;;;;;;18.98;46.94;97947.62;4426845;32;19954;-70
2022/02/16 06:32:31;;;;;;;;;;;;;;;18.74;46.70;97953.78;4424406;32;19972;-70
2022/02/16 06:34:57;;;;;;;;;;;;;;;18.35;47.34;97973.25;4424753;32;19954;-69
2022/02/16 06:37:23;;;;;;;;;;;;;;;19.00;46.52;97990.59;4426002;32;20382;-69
2022/02/16 06:39:48;;;;;;;;;;;;;;;18.93;46.71;97968.50;4426198;32;19998;-69
2022/02/16 06:42:14;;;;;;;;;;;;;;;18.84;46.73;97982.53;4425076;32;19965;-68
2022/02/16 06:44:41;;;;;;;;;;;;;;;18.46;47.20;97975.78;4422005;32;20337;-70
2022/02/16 06:47:07;;;;;;;;;;;;;;;18.61;46.19;97993.00;4427124;32;19961;-69
2022/02/16 06:49:32;;;;;;;;;;;;;;;18.24;46.45;98038.97;4426834;32;19970;-70
2022/02/16 06:51:58;;;;;;;;;;;;;;;18.26;46.86;97959.50;4424889;32;20004;-70
2022/02/16 06:54:23;;;;;;;;;;;;;;;18.59;46.10;98009.91;4425861;32;19993;-70
2022/02/16 06:56:49;;;;;;;;;;;;;;;18.45;46.57;98009.22;4424263;32;19989;-70
2022/02/16 06:59:14;;;;;;;;;;;;;;;18.26;47.07;98005.03;4425161;32;20118;-70
2022/02/16 07:01:39;;;;;;;;;;;;;;;18.13;47.57;97993.75;4425843;32;19994;-70
2022/02/16 07:04:05;;;;;;;;;;;;;;;18.53;46.88;97998.63;4424287;32;19993;-71
2022/02/16 07:06:31;;;;;;;;;;;;;;;18.40;47.28;97970.25;4410047;32;20476;-71
2022/02/16 07:08:57;;;;;;;;;;;;;;;18.87;46.27;97982.16;4423150;32;20049;-71
2022/02/16 07:11:23;;;;;;;;;;;;;;;18.37;47.27;97974.22;4426218;32;19993;-71
2022/02/16 07:13:48;;;;;;;;;;;;;;;18.71;47.29;97974.84;4423292;32;20456;-71
2022/02/16 07:16:14;;;;;;;;;;;;;;;18.23;48.05;97989.06;4424928;32;19991;-71
2022/02/16 07:18:40;;;;;;;;;;;;;;;18.41;47.55;98000.25;4424097;32;20001;-71
2022/02/16 07:21:06;;;;;;;;;;;;;;;18.14;47.91;97983.88;4422303;32;19953;-72
2022/02/16 07:23:32;;;;;;;;;;;;;;;18.06;48.19;98008.66;4420722;32;20379;-72
2022/02/16 07:25:57;;;;;;;;;;;;;;;18.35;47.79;97981.78;4423344;32;20009;-72
2022/02/16 07:28:23;;;;;;;;;;;;;;;18.57;47.25;97986.91;4426025;32;19965;-72
2022/02/16 07:30:49;;;;;;;;;;;;;;;18.53;47.49;97980.81;4427291;32;19991;-72
2022/02/16 07:33:15;;;;;;;;;;;;;;;18.65;47.32;97965.69;4421160;32;19969;-72
2022/02/16 07:35:41;;;;;;;;;;;;;;;18.63;47.56;98001.75;4424258;32;20054;-72
2022/02/16 07:38:06;;;;;;;;;;;;;;;18.53;47.63;97997.91;4421550;32;20065;-72
2022/02/16 07:40:32;;;;;;;;;;;;;;;18.20;48.48;97995.87;4426359;32;19965;-72
2022/02/16 07:42:57;;;;;;;;;;;;;;;18.40;48.33;98012.19;4423188;32;20402;-72
2022/02/16 07:45:23;;;;;;;;;;;;;;;18.46;47.98;97998.59;4414778;32;20331;-72
2022/02/16 07:47:49;;;;;;;;;;;;;;;18.23;48.76;98020.37;4425988;32;19981;-72
2022/02/16 07:50:14;;;;;;;;;;;;;;;18.79;47.41;98038.34;4426001;32;19957;-72
2022/02/16 07:52:40;;;;;;;;;;;;;;;18.27;48.35;98032.19;4421891;32;20015;-71
2022/02/16 07:55:07;;;;;;;;;;;;;;;18.31;48.27;98035.47;4423961;32;19962;-71
2022/02/16 07:57:33;;;;;;;;;;;;;;;18.37;48.05;98056.03;4422309;32;19982;-71
2022/02/16 07:59:59;;;;;;;;;;;;;;;18.29;48.12;98081.56;4423336;32;19996;-71
2022/02/16 08:02:24;;;;;;;;;;;;;;;18.44;47.67;98041.09;4421066;32;20006;-71
2022/02/16 08:04:50;;;;;;;;;;;;;;;18.45;47.51;98043.41;4422958;32;19957;-71
2022/02/16 08:07:15;;;;;;;;;;;;;;;18.65;46.81;98031.19;4422790;32;20373;-71
2022/02/16 08:09:41;;;;;;;;;;;;;;;18.53;46.94;98052.00;4424283;32;20025;-71
2022/02/16 08:12:06;;;;;;;;;;;;;;;18.22;47.36;98030.25;4422415;32;20001;-71
2022/02/16 08:14:33;;;;;;;;;;;;;;;18.40;47.19;98018.66;4424347;32;19956;-71
2022/02/16 08:17:00;;;;;;;;;;;;;;;18.83;46.31;98040.81;4422487;32;19953;-71
2022/02/16 08:19:26;;;;;;;;;;;;;;;18.66;46.30;98032.75;4423010;32;19957;-71
2022/02/16 08:21:55;;;;;;;;;;;;;;;18.59;46.11;98046.91;4422708;32;20741;-71
2022/02/16 08:24:25;;;;;;;;;;;;;;;18.86;45.48;98054.72;4422529;32;20004;-71
2022/02/16 08:26:51;;;;;;;;;;;;;;;18.49;46.57;98071.50;4422505;32;20000;-71
2022/02/16 08:29:16;;;;;;;;;;;;;;;18.56;46.60;98076.53;4416616;32;20003;-71
2022/02/16 08:31:42;;;;;;;;;;;;;;;19.10;45.46;98057.16;4415312;32;20004;-72
2022/02/16 08:34:08;;;;;;;;;;;;;;;19.01;45.52;98080.47;4413310;32;19941;-72
2022/02/16 08:36:34;;;;;;;;;;;;;;;19.15;44.95;98101.06;4402836;32;19962;-72
2022/02/16 08:39:00;;;;;;;;;;;;;;;18.92;45.21;98078.13;4413584;32;20012;-71
2022/02/16 08:41:25;;;;;;;;;;;;;;;19.24;44.61;98055.69;4416346;32;19980;-71
2022/02/16 08:43:51;;;;;;;;;;;;;;;19.18;44.83;98042.94;4414055;32;20369;-71
2022/02/16 08:46:18;;;;;;;;;;;;;;;19.13;44.58;98041.00;4413790;32;19953;-71
2022/02/16 08:48:43;;;;;;;;;;;;;;;19.01;44.83;98054.03;4414648;32;19968;-72
2022/02/16 08:51:09;;;;;;;;;;;;;;;19.76;43.68;98048.75;4415007;32;20067;-71
2022/02/16 08:53:35;;;;;;;;;;;;;;;19.24;44.18;98027.19;4413064;32;19983;-72
2022/02/16 08:56:01;;;;;;;;;;;;;;;19.45;43.84;98059.25;4411942;32;20389;-72
2022/02/16 08:58:28;;;;;;;;;;;;;;;18.97;44.52;98091.47;4415976;32;20001;-71
2022/02/16 09:00:54;;;;;;;;;;;;;;;19.14;44.51;98051.84;4413609;32;20002;-70
2022/02/16 09:03:21;;;;;;;;;;;;;;;18.99;44.64;98028.22;4414965;32;19957;-72
2022/02/16 09:05:46;;;;;;;;;;;;;;;19.48;44.18;98000.31;4401023;32;19990;-72
2022/02/16 09:08:12;;;;;;;;;;;;;;;19.21;44.55;98136.66;4418461;32;19989;-72
2022/02/16 09:10:38;;;;;;;;;;;;;;;19.60;43.88;98058.56;4414727;32;19968;-72
2022/02/16 09:13:03;;;;;;;;;;;;;;;19.63;43.56;98055.34;4414346;32;19961;-72
2022/02/16 09:15:29;;;;;;;;;;;;;;;19.83;43.12;98058.63;4412225;32;20056;-72
2022/02/16 09:17:56;;;;;;;;;;;;;;;19.60;43.27;98058.56;4415163;32;19954;-72
2022/02/16 09:20:21;;;;;;;;;;;;;;;19.72;42.88;98097.59;4414484;32;20586;-72
2022/02/16 09:22:47;;;;;;;;;;;;;;;20.23;42.09;98079.69;4416962;32;19990;-72
2022/02/16 09:25:13;;;;;;;;;;;;;;;20.11;42.24;98076.41;4410538;32;19980;-72
2022/02/16 09:27:38;;;;;;;;;;;;;;;20.30;41.90;98056.09;4417407;32;20295;-72
2022/02/16 09:30:04;;;;;;;;;;;;;;;20.62;41.31;98084.88;4420746;32;19960;-72
2022/02/16 09:32:30;;;;;;;;;;;;;;;20.32;41.69;98033.44;4422865;32;19993;-72
2022/02/16 09:34:55;;;;;;;;;;;;;;;20.23;42.05;98054.00;4423066;32;20225;-71
2022/02/16 09:37:21;;;;;;;;;;;;;;;20.37;41.74;98073.25;4422486;32;19961;-71
2022/02/16 09:39:47;;;;;;;;;;;;;;;20.78;40.81;98070.03;4425184;32;20017;-71
2022/02/16 09:42:13;;;;;;;;;;;;;;;20.72;40.84;98075.19;4420016;32;20643;-72
2022/02/16 09:44:49;;;;;;;;;;;;;;;20.49;41.47;98102.22;4420360;32;19949;-71
2022/02/16 09:47:14;;;;;;;;;;;;;;;20.60;41.31;98076.12;4423987;32;20352;-72
2022/02/16 09:49:41;;;;;;;;;;;;;;;20.02;42.29;98099.03;4425237;32;19988;-72
2022/02/16 09:52:09;;;;;;;;;;;;;;;20.53;41.50;98103.37;4425030;32;19956;-71
2022/02/16 09:54:36;;;;;;;;;;;;;;;20.29;41.63;98108.84;4424259;32;19989;-71
2022/02/16 09:57:01;;;;;;;;;;;;;;;19.95;41.44;98103.41;4427065;32;20451;-71
2022/02/16 09:59:27;;;;;;;;;;;;;;;20.40;40.88;98117.81;4423673;32;19969;-71
2022/02/16 10:04:30;;;;;;;;;;;;;;;20.40;41.18;98143.50;3949535;32;15841615;-71
2022/02/16 10:06:57;;;;;;;;;;;;;;;20.40;41.18;98143.50;4430388;32;20387;-72
2022/02/16 10:11:59;;;;;;;;;;;;;;;19.89;42.31;98151.31;3952286;32;15729589;-72
2022/02/16 10:14:27;;;;;;;;;;;;;;;19.89;42.31;98151.31;4437866;32;20005;-72
2022/02/16 10:16:53;;;;;;;;;;;;;;;19.45;42.72;98158.31;4434080;32;20016;-71
2022/02/16 10:19:18;;;;;;;;;;;;;;;19.54;42.54;98183.47;4433571;32;19949;-71
2022/02/16 10:22:01;;;;;;;;;;;;;;;19.72;42.24;98154.66;4434572;32;19982;-71
2022/02/16 10:24:27;;;;;;;;;;;;;;;19.78;42.21;98154.50;4434269;32;21042;-72
2022/02/16 10:26:54;;;;;;;;;;;;;;;19.76;42.13;98175.03;4434725;32;20013;-72
2022/02/16 10:29:22;;;;;;;;;;;;;;;19.87;42.06;98168.25;4437480;32;19989;-72
2022/02/16 10:31:48;;;;;;;;;;;;;;;19.71;42.15;98173.13;4435279;32;19999;-71
2022/02/16 10:34:14;;;;;;;;;;;;;;;19.70;41.99;98157.31;4421622;32;20418;-71
2022/02/16 10:36:39;;;;;;;;;;;;;;;19.76;41.90;98172.19;4436043;32;19954;-71
2022/02/16 10:39:07;;;;;;;;;;;;;;;19.82;41.87;98191.97;4433575;32;19990;-71
2022/02/16 10:41:51;;;;;;;;;;;;;;;20.15;41.74;98176.75;4434100;32;19989;-72
2022/02/16 10:44:19;;;;;;;;;;;;;;;19.98;41.69;98167.91;4433992;32;19963;-71
2022/02/16 10:46:56;;;;;;;;;;;;;;;20.15;41.61;98162.47;4437334;32;20339;-71
2022/02/16 10:49:22;;;;;;;;;;;;;;;20.50;41.09;98178.78;4434980;32;20410;-71
2022/02/16 10:52:01;;;;;;;;;;;;;;;20.08;41.39;98151.78;4422613;32;19949;-71
2022/02/16 10:54:26;;;;;;;;;;;;;;;20.47;40.76;98151.34;4435167;32;19995;-71
2022/02/16 10:56:52;;;;;;;;;;;;;;;20.88;40.11;98144.53;4431329;32;19989;-72
2022/02/16 10:59:17;;;;;;;;;;;;;;;21.18;39.37;98161.69;4434500;32;20352;-72
2022/02/16 11:01:43;;;;;;;;;;;;;;;21.15;39.22;98166.47;4435539;32;20039;-72
2022/02/16 11:04:11;;;;;;;;;;;;;;;21.46;38.54;98159.38;4434664;32;20342;-72
2022/02/16 11:06:38;;;;;;;;;;;;;;;21.38;38.68;98161.50;4434429;32;20298;-71
2022/02/16 11:09:05;;;;;;;;;;;;;;;21.59;38.12;98149.81;4436428;32;19997;-72
2022/02/16 11:11:31;;;;;;;;;;;;;;;21.50;37.82;98165.47;4437495;32;19941;-72
2022/02/16 11:13:57;;;;;;;;;;;;;;;21.84;37.73;98144.97;4433681;32;20017;-72
2022/02/16 11:16:23;;;;;;;;;;;;;;;20.97;38.80;98176.19;4425006;32;19992;-72
2022/02/16 11:18:50;;;;;;;;;;;;;;;21.39;38.61;98165.84;4435140;32;19993;-72
2022/02/16 11:23:52;;;;;;;;;;;;;;;20.84;41.23;98204.94;3953591;32;15725513;-70
2022/02/16 11:26:38;;;;;;;;;;;;;;;20.84;41.23;98204.94;4430587;32;19993;-70
2022/02/16 11:29:08;;;;;;;;;;;;;;;20.72;42.59;98183.00;4428278;32;19981;-70
2022/02/16 11:31:37;;;;;;;;;;;;;;;19.94;44.13;98164.66;4433901;32;19996;-70
2022/02/16 11:34:22;;;;;;;;;;;;;;;19.62;45.42;98141.50;4425026;32;20007;-70
2022/02/16 11:36:50;;;;;;;;;;;;;;;19.64;46.60;98151.00;4433307;32;19961;-70
2022/02/16 11:39:35;;;;;;;;;;;;;;;19.57;47.88;98128.91;4428796;32;20396;-69
2022/02/16 11:42:01;;;;;;;;;;;;;;;19.67;47.58;98118.50;4413258;32;19969;-69
2022/02/16 11:44:47;;;;;;;;;;;;;;;19.12;49.68;98116.44;4427439;32;20377;-69
2022/02/16 11:47:32;;;;;;;;;;;;;;;19.10;49.91;98110.53;4431690;32;19995;-69
2022/02/16 11:49:58;;;;;;;;;;;;;;;18.93;50.50;98088.19;4427713;32;19953;-69
2022/02/16 11:52:34;;;;;;;;;;;;;;;18.86;50.46;98077.50;4426853;32;20000;-69
2022/02/16 11:55:00;;;;;;;;;;;;;;;18.71;50.31;98076.62;4429844;32;20040;-69
2022/02/16 11:57:43;;;;;;;;;;;;;;;18.88;50.14;98072.03;4429667;32;20016;-70
2022/02/16 12:05:56;;;;;;;;;;;;;;;19.15;51.33;98096.13;3944409;32;15726350;-69
2022/02/16 12:11:04;;;;;;;;;;;;;;;19.12;51.03;98085.09;3946192;32;15726357;-69
2022/02/16 12:13:35;;;;;;;;;;;;;;;19.12;51.03;98085.09;4419258;32;19997;-69
2022/02/16 12:16:03;;;;;;;;;;;;;;;18.75;51.84;98072.09;4419543;32;19968;-68
2022/02/16 12:18:29;;;;;;;;;;;;;;;18.48;52.77;98042.28;4417737;32;20026;-69
2022/02/16 12:20:56;;;;;;;;;;;;;;;18.32;53.12;98046.28;4404282;32;19964;-69
2022/02/16 12:23:22;;;;;;;;;;;;;;;18.44;52.60;98019.06;4414683;32;20411;-69
2022/02/16 12:26:00;;;;;;;;;;;;;;;18.51;52.59;98046.09;4416020;32;19968;-69
2022/02/16 12:28:26;;;;;;;;;;;;;;;18.82;51.52;98030.75;4414755;32;19970;-69
2022/02/16 12:30:52;;;;;;;;;;;;;;;18.96;50.66;98046.44;4416846;32;20431;-69
2022/02/16 12:33:19;;;;;;;;;;;;;;;19.12;50.09;98033.78;4412770;32;19997;-69
2022/02/16 12:35:46;;;;;;;;;;;;;;;19.39;49.43;98050.09;4416486;32;20065;-69
2022/02/16 12:38:12;;;;;;;;;;;;;;;19.49;48.55;98030.38;4421505;32;20004;-70
2022/02/16 12:40:37;;;;;;;;;;;;;;;19.77;47.98;98016.00;4418754;32;19961;-69
2022/02/16 12:43:09;;;;;;;;;;;;;;;19.38;47.96;98008.66;4415346;32;20414;-69
2022/02/16 12:45:36;;;;;;;;;;;;;;;19.70;47.40;98002.50;4416733;32;19988;-69
2022/02/16 12:48:01;;;;;;;;;;;;;;;19.81;47.11;98013.53;4418790;32;19953;-69
2022/02/16 12:50:28;;;;;;;;;;;;;;;19.77;47.02;97988.25;4416076;32;20407;-69
2022/02/16 12:52:58;;;;;;;;;;;;;;;19.91;46.83;97970.97;4415040;32;20002;-70
2022/02/16 12:55:25;;;;;;;;;;;;;;;19.63;47.23;97966.13;4415023;32;19995;-70
2022/02/16 12:57:53;;;;;;;;;;;;;;;19.94;46.92;97972.69;4414821;32;20008;-70